CBB7 weather

Tipella Airport
Tipella, British Columbia, Canada

Public forecast

Using degrees Celsius for public forecast. Weather courtesy of forecast.io.

METAR (pilot weather report)

Closest report is Hope Airport, 34.3 nm (63.5 km) SE. Retrieved 2019/07/21 07:00 UTC (44 minutes ago):

CYHE 210700Z AUTO 09007KT 9SM CLR 18/12 A3002 RMK SLP168 DENSITY ALT 400FT

TAF (pilot weather forecast)

Forecast is more than 12 hours old.

Closest forecast is Squamish Airport, 38.8 nm (71.9 km) W. Retrieved 2010/04/03 00:39 UTC (9 years ago):

TAF CYSE 030039Z 0301/0401 14008KT 5SM -RA BR SCT005 OVC025 TEMPO 0301/0303 14010G22KT 2SM -RA BR BKN005 FM030300 17005KT 11/2SM RA BR BKN005 OVC020 TEMPO 0303/0312 6SM -RA BR SCT005 OVC020 PROB30 0303/0312 3/4SM SHRA BKN004 FM031200 VRB02KT 6SM -SHRA BR FEW006 OVC030 TEMPO 0312/0320 2SM -SHRA BR BKN006 RMK NXT FCST BY 030700Z